Time;durP1;ratioP1;P1;durP2;ratioP2;P2;SDS_P1;SDS_P2;PMS_P1;PMS_P2;Temp;Humidity;BMP_temperature;BMP_pressure;BME280_temperature;BME280_humidity;BME280_pressure;Samples;Min_cycle;Max_cycle;Signal;HPM_P1;HPM_P2
2022/08/22 00:00:52;;;;;;;7.67;3.23;;;18.90;99.90;;;;;;4864430;29;20240;-55
2022/08/22 00:03:40;;;;;;;5.63;2.87;;;18.90;99.90;;;;;;4859074;29;20250;-55
2022/08/22 00:06:17;;;;;;;7.67;3.10;;;18.90;99.90;;;;;;4868241;29;20266;-57
2022/08/22 00:08:56;;;;;;;7.23;2.90;;;18.80;99.90;;;;;;4855358;29;20241;-56
2022/08/22 00:11:34;;;;;;;8.30;3.00;;;18.80;99.90;;;;;;4862647;29;20329;-57
2022/08/22 00:14:13;;;;;;;5.23;2.60;;;18.90;99.90;;;;;;4865667;29;20246;-55
2022/08/22 00:16:50;;;;;;;5.90;2.33;;;18.90;99.90;;;;;;4853804;29;20271;-57
2022/08/22 00:19:30;;;;;;;6.60;2.80;;;18.80;99.90;;;;;;4861016;29;20346;-57
2022/08/22 00:22:04;;;;;;;6.47;3.07;;;18.80;99.90;;;;;;4865542;29;20228;-57
2022/08/22 00:24:40;;;;;;;5.67;2.80;;;18.80;99.90;;;;;;4858164;29;20318;-57
2022/08/22 00:27:14;;;;;;;10.20;3.00;;;18.80;99.90;;;;;;4865364;29;20254;-57
2022/08/22 00:29:47;;;;;;;12.33;3.40;;;18.80;99.90;;;;;;4866677;29;20246;-57
2022/08/22 00:32:23;;;;;;;6.43;2.47;;;18.80;99.90;;;;;;4870013;29;20254;-56
2022/08/22 00:34:58;;;;;;;7.90;2.67;;;18.70;99.90;;;;;;4871507;29;20245;-56
2022/08/22 00:37:31;;;;;;;8.37;2.83;;;18.70;99.90;;;;;;4871430;29;20254;-57
2022/08/22 00:40:12;;;;;;;5.10;2.87;;;18.70;99.90;;;;;;4846811;29;20239;-57
2022/08/22 00:42:57;;;;;;;11.50;2.83;;;18.70;99.90;;;;;;4859582;29;20258;-56
2022/08/22 00:45:52;;;;;;;5.70;2.80;;;18.70;99.90;;;;;;4864342;29;20255;-56
2022/08/22 00:48:56;;;;;;;7.33;2.87;;;18.70;99.90;;;;;;4865261;29;20248;-54
2022/08/22 00:51:50;;;;;;;6.87;3.20;;;18.70;99.90;;;;;;4871109;29;20725;-56
2022/08/22 00:54:27;;;;;;;6.57;3.10;;;18.70;99.90;;;;;;4868407;29;20720;-56
2022/08/22 00:57:17;;;;;;;6.73;2.70;;;18.70;99.90;;;;;;4869377;29;20259;-56
2022/08/22 01:00:04;;;;;;;6.70;3.23;;;18.70;99.90;;;;;;4863203;29;20236;-56
2022/08/22 01:02:47;;;;;;;7.97;3.37;;;18.70;99.90;;;;;;4864717;29;20738;-56
2022/08/22 01:05:36;;;;;;;7.83;3.80;;;18.70;99.90;;;;;;4861216;29;20888;-57
2022/08/22 01:08:21;;;;;;;7.33;3.30;;;18.70;99.90;;;;;;4864733;29;20254;-56
2022/08/22 01:11:25;;;;;;;8.80;3.60;;;18.70;99.90;;;;;;4869877;29;20246;-57
2022/08/22 01:14:10;;;;;;;6.10;3.20;;;18.70;99.90;;;;;;4870265;29;20240;-56
2022/08/22 01:16:54;;;;;;;7.03;3.13;;;18.70;99.90;;;;;;4869993;29;20899;-57
2022/08/22 01:19:56;;;;;;;7.53;3.20;;;18.70;99.90;;;;;;4866651;29;20747;-58
2022/08/22 01:23:13;;;;;;;6.07;2.97;;;18.60;99.90;;;;;;4870796;29;20244;-56
2022/08/22 01:26:12;;;;;;;7.03;3.40;;;18.60;99.90;;;;;;4870988;29;20327;-57
2022/08/22 01:29:17;;;;;;;8.07;3.20;;;18.60;99.90;;;;;;4847577;29;20244;-56
2022/08/22 01:32:48;;;;;;;4.43;2.60;;;18.60;99.90;;;;;;4866922;29;20275;-53
2022/08/22 01:35:40;;;;;;;5.27;2.60;;;18.60;99.90;;;;;;4853951;29;20415;-56
2022/08/22 01:38:32;;;;;;;7.67;3.37;;;18.60;99.90;;;;;;4860619;29;20728;-56
2022/08/22 01:41:33;;;;;;;8.10;3.70;;;18.50;99.90;;;;;;4869754;29;20241;-57
2022/08/22 01:44:17;;;;;;;10.47;3.77;;;18.50;99.90;;;;;;4869728;29;20318;-56
2022/08/22 01:46:54;;;;;;;7.13;3.30;;;18.50;99.90;;;;;;4871220;29;20243;-56
2022/08/22 01:49:27;;;;;;;6.30;3.07;;;18.50;99.90;;;;;;4869644;29;20800;-57
2022/08/22 01:52:04;;;;;;;5.60;2.87;;;18.50;99.90;;;;;;4871622;29;20244;-57
2022/08/22 01:54:43;;;;;;;7.00;3.07;;;18.50;99.90;;;;;;4870032;29;20278;-55
2022/08/22 01:57:13;;;;;;;6.63;3.47;;;18.50;99.90;;;;;;4870058;29;20739;-55
2022/08/22 01:59:44;;;;;;;9.17;3.57;;;18.50;99.90;;;;;;4869959;29;20589;-55
2022/08/22 02:02:47;;;;;;;7.17;3.27;;;18.50;99.90;;;;;;4869966;29;20733;-56
2022/08/22 02:05:25;;;;;;;7.67;3.90;;;18.50;99.90;;;;;;4870342;29;20248;-56
2022/08/22 02:08:01;;;;;;;6.77;3.43;;;18.50;99.90;;;;;;4868868;29;20270;-56
2022/08/22 02:10:47;;;;;;;8.20;4.10;;;18.50;99.90;;;;;;4867858;29;20715;-57
2022/08/22 02:13:33;;;;;;;10.20;4.30;;;18.50;99.90;;;;;;4870966;29;20619;-58
2022/08/22 02:16:08;;;;;;;8.43;4.17;;;18.50;99.90;;;;;;4866055;29;20606;-54
2022/08/22 02:18:50;;;;;;;6.37;3.70;;;18.40;99.90;;;;;;4862875;29;20255;-57
2022/08/22 02:21:26;;;;;;;7.90;4.27;;;18.50;99.90;;;;;;4870044;29;20730;-57
2022/08/22 02:24:02;;;;;;;10.10;3.57;;;18.40;99.90;;;;;;4869471;29;20229;-57
2022/08/22 02:26:43;;;;;;;7.17;3.40;;;18.40;99.90;;;;;;4869963;29;20246;-55
2022/08/22 02:29:17;;;;;;;7.70;3.67;;;18.40;99.90;;;;;;4858321;29;20238;-55
2022/08/22 02:31:53;;;;;;;8.90;3.50;;;18.40;99.90;;;;;;4852382;29;20250;-55
2022/08/22 02:34:33;;;;;;;5.97;3.63;;;18.30;99.90;;;;;;4866416;29;20241;-56
2022/08/22 02:37:08;;;;;;;7.47;3.90;;;18.30;99.90;;;;;;4867124;29;20267;-55
2022/08/22 02:39:45;;;;;;;8.77;4.20;;;18.30;99.90;;;;;;4863713;29;20229;-56
2022/08/22 02:42:23;;;;;;;7.07;3.30;;;18.20;99.90;;;;;;4868323;29;20243;-56
2022/08/22 02:44:59;;;;;;;5.80;3.93;;;18.20;99.90;;;;;;4870107;29;20239;-55
2022/08/22 02:47:35;;;;;;;9.07;3.70;;;18.20;99.90;;;;;;4863566;29;20241;-57
2022/08/22 02:50:17;;;;;;;8.20;3.40;;;18.10;99.90;;;;;;4861163;29;20240;-57
2022/08/22 02:52:57;;;;;;;6.70;3.83;;;18.10;99.90;;;;;;4869310;29;20307;-55
2022/08/22 02:55:48;;;;;;;7.30;3.60;;;18.10;99.90;;;;;;4867950;29;20382;-57
2022/08/22 02:58:35;;;;;;;6.70;3.43;;;18.10;99.90;;;;;;4863124;29;20244;-55
2022/08/22 03:01:23;;;;;;;4.47;3.20;;;18.10;99.90;;;;;;4860042;29;20251;-56
2022/08/22 03:04:12;;;;;;;5.13;3.10;;;18.10;99.90;;;;;;4865857;29;20241;-56
2022/08/22 03:06:46;;;;;;;7.07;3.67;;;18.10;99.90;;;;;;4857886;29;20734;-57
2022/08/22 03:09:27;;;;;;;4.40;2.90;;;18.10;99.90;;;;;;4866106;29;20736;-57
2022/08/22 03:12:08;;;;;;;6.87;3.90;;;18.10;99.90;;;;;;4868566;29;20248;-56
2022/08/22 03:14:43;;;;;;;6.87;4.17;;;18.10;99.90;;;;;;4867807;29;20236;-57
2022/08/22 03:17:18;;;;;;;8.97;4.43;;;18.00;99.90;;;;;;4867598;29;20697;-57
2022/08/22 03:19:56;;;;;;;8.67;5.00;;;18.00;99.90;;;;;;4866329;29;20262;-55
2022/08/22 03:22:31;;;;;;;9.00;4.27;;;17.90;99.90;;;;;;4867442;29;20264;-56
2022/08/22 03:25:07;;;;;;;8.17;4.17;;;17.90;99.90;;;;;;4864536;29;20239;-56
2022/08/22 03:27:41;;;;;;;6.93;3.53;;;17.80;99.90;;;;;;4867696;29;20246;-56
2022/08/22 03:30:19;;;;;;;8.07;3.70;;;17.90;99.90;;;;;;4867472;29;20267;-55
2022/08/22 03:32:51;;;;;;;7.43;3.90;;;17.80;99.90;;;;;;4867065;29;20281;-56
2022/08/22 03:35:37;;;;;;;8.93;4.30;;;17.80;99.90;;;;;;4868827;29;20328;-57
2022/08/22 03:38:17;;;;;;;7.20;3.60;;;17.80;99.90;;;;;;4863710;29;20246;-56
2022/08/22 03:41:11;;;;;;;6.77;4.07;;;17.80;99.90;;;;;;4866503;29;20234;-56
2022/08/22 03:44:01;;;;;;;5.70;3.60;;;17.80;99.90;;;;;;4826716;29;20261;-55
2022/08/22 03:47:02;;;;;;;5.73;3.80;;;17.80;99.90;;;;;;4865876;29;20243;-57
2022/08/22 03:50:09;;;;;;;5.80;4.10;;;17.80;99.90;;;;;;4864577;29;20275;-57
2022/08/22 03:53:09;;;;;;;6.77;3.87;;;17.70;99.90;;;;;;4867103;29;20323;-56
2022/08/22 03:56:19;;;;;;;8.33;4.30;;;17.70;99.90;;;;;;4868632;29;20304;-57
2022/08/22 03:59:28;;;;;;;7.83;4.30;;;17.70;99.90;;;;;;4865628;29;20245;-57
2022/08/22 04:02:29;;;;;;;4.57;3.40;;;17.70;99.90;;;;;;4863754;29;20738;-56
2022/08/22 04:05:35;;;;;;;6.13;3.70;;;17.70;99.90;;;;;;4866372;29;20770;-56
2022/08/22 04:08:30;;;;;;;4.23;3.50;;;17.70;99.90;;;;;;4864396;29;20605;-55
2022/08/22 04:11:20;;;;;;;6.57;3.53;;;17.70;99.90;;;;;;4867538;29;20239;-57
2022/08/22 04:14:26;;;;;;;7.20;3.97;;;17.70;99.90;;;;;;4864530;29;20341;-54
2022/08/22 04:17:23;;;;;;;6.07;4.20;;;17.70;99.90;;;;;;4839635;29;20242;-56
2022/08/22 04:20:32;;;;;;;6.43;4.20;;;17.70;99.90;;;;;;4864276;29;20616;-57
2022/08/22 04:23:27;;;;;;;5.50;3.70;;;17.70;99.90;;;;;;4868164;29;20244;-57
2022/08/22 04:26:01;;;;;;;7.03;4.40;;;17.70;99.90;;;;;;4864258;29;20721;-55
2022/08/22 04:28:44;;;;;;;7.37;4.30;;;17.70;99.90;;;;;;4863527;29;20736;-57
2022/08/22 04:31:17;;;;;;;6.47;3.63;;;17.70;99.90;;;;;;4857402;29;20239;-56
2022/08/22 04:33:57;;;;;;;7.87;4.00;;;17.70;99.90;;;;;;4866976;29;20900;-55
2022/08/22 04:36:28;;;;;;;8.53;3.93;;;17.70;99.90;;;;;;4866353;29;20258;-56
2022/08/22 04:39:00;;;;;;;7.83;3.67;;;17.70;99.90;;;;;;4860756;29;20243;-57
2022/08/22 04:41:45;;;;;;;6.27;4.10;;;17.70;99.90;;;;;;4866561;29;20242;-56
2022/08/22 04:44:16;;;;;;;6.53;4.03;;;17.70;99.90;;;;;;4865734;29;20257;-57
2022/08/22 04:46:52;;;;;;;5.90;3.63;;;17.70;99.90;;;;;;4865405;29;20235;-54
2022/08/22 04:49:30;;;;;;;8.53;4.07;;;17.80;99.90;;;;;;4861161;29;21082;-57
2022/08/22 04:52:08;;;;;;;8.40;4.57;;;17.80;99.90;;;;;;4867672;29;20250;-57
2022/08/22 04:54:51;;;;;;;6.57;4.03;;;17.80;99.90;;;;;;4867661;29;20278;-57
2022/08/22 04:57:27;;;;;;;7.43;4.03;;;17.70;99.90;;;;;;4868920;29;20706;-55
2022/08/22 04:59:59;;;;;;;4.73;3.37;;;17.70;99.90;;;;;;4864665;29;20236;-57
2022/08/22 05:02:29;;;;;;;4.80;3.37;;;17.70;99.90;;;;;;4866352;29;20245;-56
2022/08/22 05:05:02;;;;;;;6.03;3.70;;;17.70;99.90;;;;;;4865497;29;20243;-56
2022/08/22 05:07:35;;;;;;;5.17;4.07;;;17.70;99.90;;;;;;4865544;29;20371;-57
2022/08/22 05:10:08;;;;;;;5.67;4.40;;;17.80;99.90;;;;;;4863021;29;20795;-56
2022/08/22 05:12:45;;;;;;;7.27;4.33;;;17.80;99.90;;;;;;4867308;29;20619;-55
2022/08/22 05:15:19;;;;;;;10.47;4.47;;;17.90;99.90;;;;;;4864936;29;20361;-57
2022/08/22 05:17:53;;;;;;;7.83;3.90;;;17.90;99.90;;;;;;4863978;29;20747;-57
2022/08/22 05:20:24;;;;;;;9.43;4.27;;;18.00;99.90;;;;;;4869311;29;20241;-57
2022/08/22 05:22:56;;;;;;;9.90;4.00;;;18.20;99.90;;;;;;4872329;29;20694;-57
2022/08/22 05:25:28;;;;;;;9.37;4.97;;;18.30;99.90;;;;;;4869398;29;20327;-55
2022/08/22 05:28:09;;;;;;;10.10;4.50;;;18.50;99.90;;;;;;4866624;29;20243;-55
2022/08/22 05:30:38;;;;;;;10.57;5.10;;;18.60;99.90;;;;;;4869253;29;20243;-56
2022/08/22 05:33:16;;;;;;;9.30;4.57;;;18.70;99.90;;;;;;4867526;29;20230;-56
2022/08/22 05:35:50;;;;;;;7.97;4.53;;;18.70;99.90;;;;;;4869381;29;20810;-54
2022/08/22 05:38:30;;;;;;;8.17;4.40;;;18.80;99.90;;;;;;4858129;29;21184;-57
2022/08/22 05:41:03;;;;;;;9.10;4.50;;;18.80;99.90;;;;;;4858489;29;20703;-55
2022/08/22 05:43:37;;;;;;;9.30;4.53;;;18.80;99.90;;;;;;4858042;29;20741;-56
2022/08/22 05:46:09;;;;;;;7.53;4.20;;;18.90;99.90;;;;;;4855781;29;20327;-55
2022/08/22 05:48:43;;;;;;;9.97;3.93;;;19.00;99.90;;;;;;4855580;29;20245;-57
2022/08/22 05:51:17;;;;;;;7.10;4.00;;;19.10;99.90;;;;;;4858204;29;20244;-55
2022/08/22 05:53:50;;;;;;;7.17;4.20;;;19.30;99.90;;;;;;4859664;29;20253;-54
2022/08/22 05:56:27;;;;;;;9.57;4.40;;;19.40;99.90;;;;;;4858123;29;20614;-57
2022/08/22 05:59:01;;;;;;;7.57;3.70;;;19.50;99.90;;;;;;4856613;29;20244;-56
2022/08/22 06:01:38;;;;;;;9.37;3.83;;;19.70;99.90;;;;;;4856992;29;20253;-57
2022/08/22 06:04:15;;;;;;;7.63;3.57;;;19.90;99.90;;;;;;4858281;29;20259;-55
2022/08/22 06:06:52;;;;;;;8.37;3.57;;;20.00;99.90;;;;;;4857730;29;20241;-56
2022/08/22 06:09:27;;;;;;;7.77;3.10;;;20.00;99.90;;;;;;4857886;29;20274;-56
2022/08/22 06:12:10;;;;;;;7.80;3.23;;;20.20;99.90;;;;;;4858063;29;20928;-56
2022/08/22 06:14:57;;;;;;;8.37;3.47;;;20.20;99.90;;;;;;4855824;29;20261;-56
2022/08/22 06:17:30;;;;;;;10.47;3.90;;;20.20;99.90;;;;;;4857141;29;20280;-56
2022/08/22 06:20:00;;;;;;;6.50;2.87;;;20.20;99.90;;;;;;4859425;29;20246;-57
2022/08/22 06:22:33;;;;;;;8.53;3.53;;;20.20;99.90;;;;;;4860239;29;20241;-56
2022/08/22 06:25:07;;;;;;;5.90;3.10;;;20.20;99.90;;;;;;4860294;29;20240;-54
2022/08/22 06:27:36;;;;;;;7.20;3.50;;;20.20;99.90;;;;;;4860253;29;20615;-55
2022/08/22 06:30:06;;;;;;;11.27;4.10;;;20.30;99.90;;;;;;4858923;29;20242;-56
2022/08/22 06:32:40;;;;;;;8.97;3.90;;;20.30;99.90;;;;;;4860706;29;20244;-56
2022/08/22 06:36:29;;;;;;;8.37;3.90;;;20.20;99.90;;;;;;4857747;29;20285;-54
2022/08/22 06:38:23;;;;;;;8.90;3.73;;;20.30;99.90;;;;;;4865843;29;20249;-55
2022/08/22 06:40:53;;;;;;;7.80;3.70;;;20.50;99.90;;;;;;4866964;29;20244;-57
2022/08/22 06:43:23;;;;;;;9.07;3.87;;;20.80;99.90;;;;;;4867081;29;21129;-57
2022/08/22 06:45:52;;;;;;;9.83;3.70;;;21.20;99.90;;;;;;4860352;29;20710;-54
2022/08/22 06:48:23;;;;;;;11.50;3.67;;;21.50;99.90;;;;;;4858236;29;20256;-55
2022/08/22 06:50:57;;;;;;;12.10;3.20;;;21.90;99.90;;;;;;4860816;29;20717;-56
2022/08/22 06:53:29;;;;;;;7.77;3.37;;;22.10;99.90;;;;;;4860603;29;20252;-56
2022/08/22 06:56:04;;;;;;;7.87;2.80;;;22.30;99.90;;;;;;4858322;29;20256;-57
2022/08/22 06:58:37;;;;;;;10.93;3.50;;;22.40;99.90;;;;;;4859238;29;20314;-57
2022/08/22 07:01:08;;;;;;;7.40;3.23;;;22.60;99.90;;;;;;4874642;29;20744;-57
2022/08/22 07:03:44;;;;;;;8.90;2.67;;;22.90;99.90;;;;;;4875261;29;20597;-57
2022/08/22 07:06:16;;;;;;;10.67;2.90;;;23.10;99.90;;;;;;4870517;29;20242;-56
2022/08/22 07:08:46;;;;;;;9.60;2.60;;;23.40;99.90;;;;;;4867124;29;20336;-57
2022/08/22 07:11:20;;;;;;;6.93;2.63;;;23.50;99.90;;;;;;4862106;29;20241;-55
2022/08/22 07:13:55;;;;;;;8.60;2.80;;;23.40;99.90;;;;;;4861496;29;20237;-57
2022/08/22 07:16:30;;;;;;;9.60;2.80;;;23.00;99.90;;;;;;4853839;29;20242;-57
2022/08/22 07:18:58;;;;;;;11.80;2.57;;;23.30;99.90;;;;;;4852822;29;20738;-58
2022/08/22 07:21:32;;;;;;;9.00;2.60;;;23.60;99.90;;;;;;4853838;29;20782;-55
2022/08/22 07:24:04;;;;;;;8.43;2.90;;;23.80;99.90;;;;;;4861824;29;20236;-57
2022/08/22 07:26:43;;;;;;;6.93;2.53;;;23.90;99.90;;;;;;4858026;29;20703;-56
2022/08/22 07:29:20;;;;;;;7.73;2.77;;;23.90;99.90;;;;;;4857489;29;20252;-58
2022/08/22 07:31:55;;;;;;;9.33;2.57;;;24.10;99.90;;;;;;4858851;29;20242;-57
2022/08/22 07:34:42;;;;;;;7.13;2.57;;;23.90;99.90;;;;;;4858929;29;20234;-57
2022/08/22 07:37:17;;;;;;;8.03;2.30;;;23.90;99.90;;;;;;4860337;29;20256;-56
2022/08/22 07:39:52;;;;;;;6.40;2.40;;;23.90;99.90;;;;;;4859282;29;20829;-54
2022/08/22 07:42:24;;;;;;;5.87;2.37;;;24.00;99.90;;;;;;4865216;29;20242;-55
2022/08/22 07:45:06;;;;;;;7.33;2.50;;;24.10;99.90;;;;;;4864822;29;20245;-57
2022/08/22 07:47:54;;;;;;;10.27;2.93;;;24.50;99.90;;;;;;4860917;29;20608;-57
2022/08/22 07:50:27;;;;;;;8.07;2.77;;;24.70;99.90;;;;;;4856704;29;20798;-57
2022/08/22 07:53:05;;;;;;;5.30;2.50;;;24.80;99.90;;;;;;4852036;29;20309;-58
2022/08/22 07:55:33;;;;;;;7.07;2.40;;;24.80;99.90;;;;;;4859836;29;20269;-56
2022/08/22 07:58:16;;;;;;;6.57;2.57;;;24.80;99.90;;;;;;4860249;29;20246;-57
2022/08/22 08:00:48;;;;;;;5.47;2.30;;;24.90;99.90;;;;;;4855390;29;20251;-58
2022/08/22 08:03:22;;;;;;;7.67;2.27;;;25.20;99.90;;;;;;4856766;29;20691;-58
2022/08/22 08:05:52;;;;;;;7.07;2.13;;;25.40;99.90;;;;;;4853138;29;20332;-57
2022/08/22 08:08:25;;;;;;;9.50;2.50;;;25.20;99.90;;;;;;4850330;29;20238;-58
2022/08/22 08:10:57;;;;;;;8.70;2.47;;;25.00;99.90;;;;;;4850913;29;20706;-57
2022/08/22 08:13:35;;;;;;;8.30;2.23;;;24.80;99.90;;;;;;4857558;29;20700;-58
2022/08/22 08:16:06;;;;;;;6.50;2.50;;;24.60;99.90;;;;;;4857291;29;20264;-58
2022/08/22 08:18:36;;;;;;;10.47;2.90;;;24.50;99.90;;;;;;4850492;29;20643;-58
2022/08/22 08:21:09;;;;;;;7.83;2.50;;;24.40;99.90;;;;;;4847513;29;20291;-57
2022/08/22 08:23:44;;;;;;;6.97;2.57;;;24.40;99.90;;;;;;4846035;29;20246;-57
2022/08/22 08:26:17;;;;;;;9.03;2.50;;;24.50;99.90;;;;;;4849324;29;21241;-58
2022/08/22 08:28:47;;;;;;;8.60;2.90;;;24.70;99.90;;;;;;4849156;29;20236;-57
2022/08/22 08:31:23;;;;;;;9.60;2.83;;;25.20;99.90;;;;;;4847547;29;20329;-57
2022/08/22 08:33:58;;;;;;;12.37;3.33;;;25.40;99.90;;;;;;4853755;29;20373;-58
2022/08/22 08:36:36;;;;;;;7.83;2.23;;;25.50;99.90;;;;;;4852146;29;20713;-57
2022/08/22 08:39:18;;;;;;;9.10;2.30;;;25.90;99.90;;;;;;4848693;29;20244;-58
2022/08/22 08:43:25;;;;;;;6.83;2.23;;;26.30;99.90;;;;;;4854177;29;20245;-58
2022/08/22 08:45:36;;;;;;;9.53;2.67;;;26.80;99.90;;;;;;4846873;29;20238;-59
2022/08/22 08:48:31;;;;;;;9.37;2.50;;;27.10;99.90;;;;;;4848503;29;20674;-57
2022/08/22 08:51:23;;;;;;;6.50;2.37;;;27.30;99.90;;;;;;4846830;29;20235;-57
2022/08/22 08:54:29;;;;;;;9.57;2.43;;;26.90;99.90;;;;;;4847918;29;20333;-58
2022/08/22 08:57:05;;;;;;;6.43;2.60;;;27.00;99.90;;;;;;4852860;29;20686;-58
2022/08/22 08:59:44;;;;;;;8.13;2.70;;;27.40;99.90;;;;;;4851993;29;20240;-58
2022/08/22 09:02:37;;;;;;;8.77;2.53;;;27.70;99.90;;;;;;4851377;29;20252;-57
2022/08/22 09:05:35;;;;;;;5.33;2.50;;;27.50;99.90;;;;;;4852468;29;20245;-58
2022/08/22 09:08:35;;;;;;;5.90;2.30;;;28.00;99.90;;;;;;4853891;29;20238;-58
2022/08/22 09:11:35;;;;;;;7.00;2.33;;;28.10;99.90;;;;;;4851195;29;20617;-57
2022/08/22 09:14:21;;;;;;;8.87;2.30;;;28.30;99.90;;;;;;4855731;29;20321;-59
2022/08/22 09:17:23;;;;;;;6.70;2.47;;;28.50;99.90;;;;;;4856035;29;20251;-58
2022/08/22 09:20:16;;;;;;;8.37;2.40;;;28.70;99.90;;;;;;4846596;29;20707;-58
2022/08/22 09:23:22;;;;;;;8.33;2.67;;;28.30;99.90;;;;;;4849045;29;20360;-58
2022/08/22 09:25:54;;;;;;;5.20;2.03;;;28.00;99.90;;;;;;4854496;29;20245;-57
2022/08/22 09:28:29;;;;;;;6.33;2.37;;;28.10;99.90;;;;;;4861290;29;20235;-58
2022/08/22 09:31:28;;;;;;;5.93;2.43;;;28.30;99.90;;;;;;4856422;29;20252;-58
2022/08/22 09:34:21;;;;;;;6.63;2.13;;;28.50;99.90;;;;;;4863482;29;20382;-57
2022/08/22 09:37:06;;;;;;;8.53;2.57;;;28.30;99.90;;;;;;4862349;29;20610;-57
2022/08/22 09:39:42;;;;;;;5.33;2.13;;;28.60;99.90;;;;;;4860995;29;20806;-58
2022/08/22 09:42:18;;;;;;;7.83;2.23;;;28.80;99.90;;;;;;4863296;29;20238;-58
2022/08/22 09:44:59;;;;;;;7.07;2.53;;;28.50;99.90;;;;;;4862509;29;20818;-57
2022/08/22 09:47:31;;;;;;;8.30;2.67;;;28.30;99.90;;;;;;4862124;29;20242;-58
2022/08/22 09:50:12;;;;;;;5.97;2.10;;;28.60;99.90;;;;;;4860435;29;20274;-58
2022/08/22 09:52:53;;;;;;;6.87;2.27;;;28.80;99.90;;;;;;4856806;29;20569;-56
2022/08/22 09:55:38;;;;;;;9.03;2.87;;;29.00;99.90;;;;;;4863163;29;20251;-58
2022/08/22 09:58:16;;;;;;;5.10;2.10;;;28.60;99.90;;;;;;4862507;29;20241;-57
2022/08/22 10:00:54;;;;;;;7.23;2.20;;;28.60;99.90;;;;;;4861969;29;20356;-58
2022/08/22 10:03:32;;;;;;;6.23;2.37;;;28.70;99.90;;;;;;4860186;29;20237;-57
2022/08/22 10:06:04;;;;;;;7.50;2.40;;;28.60;99.90;;;;;;4861276;29;20266;-58
2022/08/22 10:08:43;;;;;;;6.13;2.10;;;28.60;99.90;;;;;;4860669;29;20245;-58
2022/08/22 10:11:25;;;;;;;5.87;2.10;;;28.60;99.90;;;;;;4850336;29;20291;-58
2022/08/22 10:14:01;;;;;;;4.43;1.97;;;28.80;99.90;;;;;;4851566;29;20619;-59
2022/08/22 10:16:53;;;;;;;4.87;2.07;;;29.10;99.90;;;;;;4852492;29;20787;-58
2022/08/22 10:19:28;;;;;;;6.63;2.20;;;29.20;99.90;;;;;;4845899;29;20347;-59
2022/08/22 10:22:29;;;;;;;6.30;2.00;;;29.30;99.90;;;;;;4862527;29;21040;-59
2022/08/22 10:25:13;;;;;;;4.70;2.17;;;29.30;99.90;;;;;;4858599;29;20234;-58
2022/08/22 10:28:08;;;;;;;4.30;1.77;;;29.10;99.90;;;;;;4852678;29;20237;-58
2022/08/22 10:30:47;;;;;;;6.27;2.40;;;29.60;99.90;;;;;;4848501;29;20346;-58
2022/08/22 10:33:24;;;;;;;5.97;2.40;;;29.80;99.90;;;;;;4844868;29;20237;-58
2022/08/22 10:36:02;;;;;;;8.73;2.17;;;29.80;99.90;;;;;;4853907;29;20726;-59
2022/08/22 10:38:38;;;;;;;6.27;2.20;;;29.20;99.90;;;;;;4855675;29;20938;-58
2022/08/22 10:41:25;;;;;;;11.40;2.20;;;28.70;99.90;;;;;;4859236;29;20313;-58
2022/08/22 10:44:02;;;;;;;6.60;2.30;;;28.60;99.90;;;;;;4852276;29;20247;-57
2022/08/22 10:46:38;;;;;;;7.37;2.63;;;28.40;99.90;;;;;;4854396;29;20253;-57
2022/08/22 10:49:18;;;;;;;4.73;2.20;;;28.30;99.90;;;;;;4854701;29;21047;-58
2022/08/22 10:51:51;;;;;;;6.23;2.30;;;28.10;99.90;;;;;;4847259;29;21249;-58
2022/08/22 10:54:38;;;;;;;7.47;2.17;;;28.10;99.90;;;;;;4858822;29;20238;-58
2022/08/22 10:57:26;;;;;;;8.10;2.73;;;28.10;99.90;;;;;;4857747;29;20240;-58
2022/08/22 11:00:02;;;;;;;7.20;2.30;;;27.80;99.90;;;;;;4850060;29;20576;-58
2022/08/22 11:02:45;;;;;;;5.67;2.37;;;27.70;99.90;;;;;;4857232;29;20738;-58
2022/08/22 11:05:36;;;;;;;6.07;2.37;;;28.00;99.90;;;;;;4860542;29;20237;-59
2022/08/22 11:09:00;;;;;;;6.07;2.20;;;28.30;99.90;;;;;;4844918;29;20667;-58
2022/08/22 11:11:40;;;;;;;7.37;2.50;;;28.60;99.90;;;;;;4843925;29;20939;-58
2022/08/22 11:14:57;;;;;;;4.87;2.17;;;28.60;99.90;;;;;;4862967;29;20257;-58
2022/08/22 11:17:52;;;;;;;5.60;2.30;;;28.40;99.90;;;;;;4825974;29;20345;-59
2022/08/22 11:20:28;;;;;;;5.20;2.00;;;28.80;99.90;;;;;;4856995;29;20561;-58
2022/08/22 11:23:17;;;;;;;4.60;2.03;;;29.40;99.90;;;;;;4856435;29;20234;-58
2022/08/22 11:25:56;;;;;;;5.70;2.10;;;29.50;99.90;;;;;;4853932;29;20708;-59
2022/08/22 11:29:02;;;;;;;6.47;2.00;;;29.30;99.90;;;;;;4853465;29;20237;-58
2022/08/22 11:31:49;;;;;;;4.67;2.10;;;28.70;99.90;;;;;;4850848;29;20589;-57
2022/08/22 11:34:32;;;;;;;5.87;2.30;;;28.30;99.90;;;;;;4837922;29;20334;-58
2022/08/22 11:37:06;;;;;;;7.43;2.27;;;28.00;99.90;;;;;;4845683;29;20242;-59
2022/08/22 11:39:47;;;;;;;5.47;2.13;;;27.80;99.90;;;;;;4853513;29;20325;-58
2022/08/22 11:42:22;;;;;;;6.87;2.20;;;27.70;99.90;;;;;;4858736;29;21070;-57
2022/08/22 11:44:54;;;;;;;6.10;2.50;;;27.70;99.90;;;;;;4860518;29;20641;-58
2022/08/22 11:47:28;;;;;;;7.73;2.40;;;27.60;99.90;;;;;;4857091;29;20241;-57
2022/08/22 11:50:01;;;;;;;5.60;2.07;;;27.40;99.90;;;;;;4852988;29;20234;-59
2022/08/22 11:52:52;;;;;;;4.87;2.00;;;27.50;99.90;;;;;;4857027;29;20278;-58
2022/08/22 11:55:26;;;;;;;6.00;2.40;;;27.40;99.90;;;;;;4855201;29;20236;-58
2022/08/22 11:58:16;;;;;;;7.53;2.40;;;27.20;99.90;;;;;;4854638;29;20249;-58
2022/08/22 12:00:55;;;;;;;5.33;2.27;;;27.10;99.90;;;;;;4852880;29;20253;-58
2022/08/22 12:03:50;;;;;;;7.43;2.40;;;27.10;99.90;;;;;;4862739;29;20594;-59
2022/08/22 12:06:50;;;;;;;9.07;2.50;;;27.20;99.90;;;;;;4846513;29;20248;-59
2022/08/22 12:09:30;;;;;;;6.60;2.13;;;27.90;99.90;;;;;;4853097;29;20329;-58
2022/08/22 12:12:18;;;;;;;4.23;2.27;;;28.10;99.90;;;;;;4861083;29;20237;-59
2022/08/22 12:14:53;;;;;;;8.80;3.00;;;28.20;99.90;;;;;;4862671;29;20317;-59
2022/08/22 12:17:40;;;;;;;7.93;2.40;;;28.20;99.90;;;;;;4858786;29;20335;-59
2022/08/22 12:20:45;;;;;;;5.23;2.50;;;28.10;99.90;;;;;;4851316;29;20606;-58
2022/08/22 12:23:50;;;;;;;7.93;2.37;;;28.00;99.90;;;;;;4860589;29;20277;-56
2022/08/22 12:26:29;;;;;;;6.80;2.40;;;27.40;99.90;;;;;;4847256;29;20271;-57
2022/08/22 12:29:17;;;;;;;5.53;2.10;;;27.10;99.90;;;;;;4856113;29;20268;-58
2022/08/22 12:32:40;;;;;;;6.47;2.17;;;27.10;99.90;;;;;;4860857;29;20887;-58
2022/08/22 12:35:29;;;;;;;4.30;1.90;;;27.30;99.90;;;;;;4862504;29;21052;-58
2022/08/22 12:38:08;;;;;;;7.70;2.27;;;27.50;99.90;;;;;;4859193;29;20234;-56
2022/08/22 12:41:13;;;;;;;4.70;1.90;;;27.50;99.90;;;;;;4862031;29;20317;-57
2022/08/22 12:44:17;;;;;;;3.93;2.10;;;27.80;99.90;;;;;;4861636;29;20729;-56
2022/08/22 12:47:02;;;;;;;6.63;2.17;;;27.90;99.90;;;;;;4859977;29;20238;-59
2022/08/22 12:49:45;;;;;;;5.57;2.27;;;28.10;99.90;;;;;;4856382;29;20914;-58
2022/08/22 12:52:35;;;;;;;7.47;2.37;;;28.30;99.90;;;;;;4845745;29;20242;-58
2022/08/22 12:55:31;;;;;;;6.10;2.10;;;28.50;99.90;;;;;;4857587;29;21198;-58
2022/08/22 12:58:08;;;;;;;5.00;2.10;;;28.60;99.90;;;;;;4855982;29;20245;-58
2022/08/22 13:00:42;;;;;;;5.30;1.93;;;28.50;99.90;;;;;;4859848;29;20583;-58
2022/08/22 13:03:23;;;;;;;5.23;2.07;;;28.40;99.90;;;;;;4862917;29;20241;-59
2022/08/22 13:05:52;;;;;;;5.23;1.97;;;28.20;99.90;;;;;;4867403;29;20241;-58
2022/08/22 13:08:31;;;;;;;5.70;2.10;;;28.10;99.90;;;;;;4862219;29;20328;-58
2022/08/22 13:11:01;;;;;;;5.07;1.80;;;27.90;99.90;;;;;;4865356;29;20318;-58
2022/08/22 13:13:39;;;;;;;6.60;2.00;;;27.90;99.90;;;;;;4861972;29;20748;-59
2022/08/22 13:16:14;;;;;;;4.90;1.90;;;28.00;99.90;;;;;;4859006;29;20330;-59
2022/08/22 13:18:48;;;;;;;7.17;2.23;;;27.90;99.90;;;;;;4856000;29;20261;-59
2022/08/22 13:21:26;;;;;;;5.03;2.07;;;27.80;99.90;;;;;;4864593;29;20292;-59
2022/08/22 13:24:07;;;;;;;6.87;2.03;;;27.60;99.90;;;;;;4864905;29;20246;-59
2022/08/22 13:26:47;;;;;;;8.83;2.23;;;27.80;99.90;;;;;;4856483;29;20251;-58
2022/08/22 13:29:20;;;;;;;6.10;2.53;;;27.80;99.90;;;;;;4861029;29;20250;-59
2022/08/22 13:32:19;;;;;;;5.10;2.00;;;27.80;99.90;;;;;;4861455;29;20241;-59
2022/08/22 13:34:54;;;;;;;4.87;2.20;;;27.60;99.90;;;;;;4860173;29;20241;-59
2022/08/22 13:37:25;;;;;;;6.33;2.07;;;27.50;99.90;;;;;;4860308;29;20244;-58
2022/08/22 13:39:58;;;;;;;5.27;2.33;;;27.50;99.90;;;;;;4859020;29;20245;-59
2022/08/22 13:42:28;;;;;;;6.10;2.50;;;27.70;99.90;;;;;;4861310;29;20244;-58
2022/08/22 13:45:02;;;;;;;9.67;2.57;;;27.60;99.90;;;;;;4858632;29;20232;-60
2022/08/22 13:47:45;;;;;;;7.70;2.37;;;27.50;99.90;;;;;;4861213;29;20419;-59
2022/08/22 13:50:21;;;;;;;5.87;2.30;;;27.10;99.90;;;;;;4863150;29;20661;-58
2022/08/22 13:52:55;;;;;;;6.47;2.40;;;27.20;99.90;;;;;;4861764;29;20586;-59
2022/08/22 13:55:29;;;;;;;5.80;2.30;;;27.40;99.90;;;;;;4866187;29;20247;-59
2022/08/22 13:58:06;;;;;;;7.43;2.07;;;27.30;99.90;;;;;;4856707;29;20814;-58
2022/08/22 14:01:04;;;;;;;7.23;2.17;;;27.30;99.90;;;;;;4852243;29;21164;-59